createdAt,value
2023-02-22T00:01:19.331Z,9.05
2023-02-22T00:03:25.231Z,10.63
2023-02-22T00:05:31.434Z,8.77
2023-02-22T00:07:35.764Z,10.63
2023-02-22T00:09:38.506Z,9.73
2023-02-22T00:11:47.541Z,9.57
2023-02-22T00:13:50.675Z,9.68
2023-02-22T00:15:52.516Z,10.55
2023-02-22T00:17:57.144Z,9.60
2023-02-22T00:19:59.937Z,10.23
2023-02-22T00:22:03.034Z,10.55
2023-02-22T00:24:22.795Z,10.35
2023-02-22T00:26:25.676Z,11.43
2023-02-22T00:28:30.565Z,11.15
2023-02-22T00:32:36.754Z,11.75
2023-02-22T00:34:40.910Z,12.07
2023-02-22T00:36:46.796Z,11.25
2023-02-22T00:38:49.613Z,10.50
2023-02-22T00:40:52.690Z,10.50
2023-02-22T00:42:55.525Z,11.65
2023-02-22T00:44:58.312Z,11.63
2023-02-22T00:47:01.109Z,11.85
2023-02-22T00:49:05.155Z,12.15
2023-02-22T00:51:09.344Z,11.77
2023-02-22T00:53:12.632Z,8.95
2023-02-22T00:55:18.670Z,10.70
2023-02-22T00:57:21.922Z,12.52
2023-02-22T00:59:25.157Z,11.68
2023-02-22T01:01:28.581Z,12.20
2023-02-22T01:03:32.184Z,12.90
2023-02-22T01:05:35.706Z,11.52
2023-02-22T01:09:44.409Z,11.27
2023-02-22T01:11:48.679Z,11.40
2023-02-22T01:13:54.073Z,11.63
2023-02-22T01:15:57.629Z,12.60
2023-02-22T01:18:00.965Z,12.48
2023-02-22T01:20:05.484Z,13.32
2023-02-22T01:22:08.291Z,15.38
2023-02-22T01:24:16.402Z,16.30
2023-02-22T01:26:19.349Z,15.55
2023-02-22T01:28:23.003Z,15.43
2023-02-22T01:30:28.898Z,12.73
2023-02-22T01:32:33.606Z,11.32
2023-02-22T01:34:36.464Z,14.05
2023-02-22T01:36:40.186Z,16.25
2023-02-22T01:38:45.172Z,17.48
2023-02-22T01:40:51.656Z,14.73
2023-02-22T01:42:57.745Z,15.73
2023-02-22T01:45:44.051Z,14.65
2023-02-22T01:47:46.802Z,13.05
2023-02-22T01:49:51.839Z,11.80
2023-02-22T01:51:58.638Z,14.48
2023-02-22T01:54:04.550Z,13.02
2023-02-22T01:56:11.029Z,13.18
2023-02-22T01:58:15.632Z,11.73
2023-02-22T02:00:21.387Z,11.40
2023-02-22T02:02:25.100Z,11.13
2023-02-22T02:04:29.891Z,12.43
2023-02-22T02:06:35.818Z,12.20
2023-02-22T02:08:49.767Z,10.63
2023-02-22T02:10:54.650Z,11.93
2023-02-22T02:15:23.207Z,11.60
2023-02-22T02:17:26.086Z,12.65
2023-02-22T02:19:40.444Z,11.55
2023-02-22T02:21:58.278Z,11.13
2023-02-22T02:24:28.981Z,12.70
2023-02-22T02:27:09.329Z,11.13
2023-02-22T02:29:34.297Z,11.55
2023-02-22T02:31:57.943Z,11.38
2023-02-22T02:34:06.234Z,11.48
2023-02-22T02:36:16.271Z,9.25
2023-02-22T02:38:31.220Z,10.52
2023-02-22T02:40:42.538Z,10.82
2023-02-22T02:42:56.257Z,10.25
2023-02-22T02:45:10.538Z,11.38
2023-02-22T02:47:20.949Z,12.00
2023-02-22T02:49:30.716Z,11.15
2023-02-22T02:51:39.409Z,12.00
2023-02-22T02:53:45.693Z,11.60
2023-02-22T02:55:48.565Z,11.50
2023-02-22T02:57:51.311Z,11.70
2023-02-22T02:59:54.091Z,10.75
2023-02-22T03:02:12.777Z,11.25
2023-02-22T03:04:44.639Z,10.50
2023-02-22T03:07:22.613Z,10.77
2023-02-22T03:09:39.248Z,10.18
2023-02-22T03:11:52.976Z,10.50
2023-02-22T03:14:06.289Z,10.70
2023-02-22T03:16:19.188Z,9.35
2023-02-22T03:18:29.953Z,11.02
2023-02-22T03:20:44.108Z,10.65
2023-02-22T03:22:53.304Z,11.10
2023-02-22T03:25:02.053Z,10.70
2023-02-22T03:27:09.407Z,10.70
2023-02-22T03:29:18.520Z,10.30
2023-02-22T03:31:26.054Z,9.82
2023-02-22T03:33:36.388Z,10.15
2023-02-22T03:35:48.116Z,10.57
2023-02-22T03:37:56.034Z,9.75
2023-02-22T03:40:01.325Z,9.68
2023-02-22T03:42:11.440Z,9.85
2023-02-22T03:44:18.928Z,9.15
2023-02-22T03:46:22.891Z,11.05
2023-02-22T03:48:32.878Z,9.73
2023-02-22T03:50:39.097Z,10.05
2023-02-22T03:52:47.383Z,11.05
2023-02-22T03:54:57.151Z,10.02
2023-02-22T03:57:04.814Z,10.68
2023-02-22T03:59:11.741Z,10.45
2023-02-22T04:01:15.694Z,11.35
2023-02-22T04:03:18.694Z,10.80
2023-02-22T04:05:24.819Z,10.60
2023-02-22T04:07:27.910Z,10.48
2023-02-22T04:09:32.703Z,10.75
2023-02-22T04:11:35.578Z,10.40
2023-02-22T04:13:38.344Z,10.30
2023-02-22T04:15:41.145Z,9.93
2023-02-22T04:17:45.964Z,10.23
2023-02-22T04:19:51.361Z,9.48
2023-02-22T04:21:55.728Z,10.65
2023-02-22T04:24:01.421Z,10.88
2023-02-22T04:26:05.910Z,10.13
2023-02-22T04:28:08.842Z,10.48
2023-02-22T04:30:19.555Z,10.35
2023-02-22T04:34:25.983Z,9.18
2023-02-22T04:36:31.737Z,11.13
2023-02-22T04:38:35.671Z,11.70
2023-02-22T04:40:38.777Z,11.20
2023-02-22T04:42:44.146Z,9.15
2023-02-22T04:44:47.176Z,10.77
2023-02-22T04:46:50.046Z,9.98
2023-02-22T04:48:52.980Z,10.98
2023-02-22T04:50:58.402Z,11.15
2023-02-22T04:53:03.307Z,10.80
2023-02-22T04:55:07.618Z,10.88
2023-02-22T04:57:12.084Z,9.80
2023-02-22T04:59:16.287Z,10.15
2023-02-22T05:01:21.677Z,9.35
2023-02-22T05:03:24.996Z,10.90
2023-02-22T05:05:27.927Z,10.60
2023-02-22T05:07:30.776Z,12.65
2023-02-22T05:09:33.564Z,9.55
2023-02-22T05:11:36.357Z,10.00
2023-02-22T05:13:39.192Z,11.35
2023-02-22T05:15:43.361Z,11.27
2023-02-22T05:17:46.405Z,10.80
2023-02-22T05:19:49.219Z,11.60
2023-02-22T05:21:52.476Z,11.38
2023-02-22T05:23:55.264Z,11.40
2023-02-22T05:25:58.384Z,10.25
2023-02-22T05:28:12.590Z,12.05
2023-02-22T05:30:16.388Z,12.13
2023-02-22T05:32:20.579Z,11.27
2023-02-22T05:34:23.941Z,11.55
2023-02-22T05:36:28.059Z,11.35
2023-02-22T05:38:30.858Z,11.88
2023-02-22T05:40:33.907Z,11.70
2023-02-22T05:42:36.775Z,9.85
2023-02-22T05:44:39.542Z,12.05
2023-02-22T05:46:42.414Z,10.65
2023-02-22T05:48:46.643Z,10.82
2023-02-22T05:50:49.883Z,11.32
2023-02-22T05:52:52.714Z,11.27
2023-02-22T05:54:55.529Z,12.02
2023-02-22T05:56:58.305Z,10.82
2023-02-22T05:59:01.089Z,9.75
2023-02-22T06:01:03.989Z,11.23
2023-02-22T06:03:09.382Z,12.45
2023-02-22T06:05:13.906Z,12.70
2023-02-22T06:07:16.888Z,14.00
2023-02-22T06:09:19.784Z,13.73
2023-02-22T06:11:22.595Z,14.70
2023-02-22T06:13:25.398Z,14.00
2023-02-22T06:15:29.269Z,12.27
2023-02-22T06:17:32.032Z,11.80
2023-02-22T06:19:34.889Z,11.55
2023-02-22T06:21:39.048Z,12.55
2023-02-22T06:23:41.862Z,11.48
2023-02-22T06:25:44.648Z,11.75
2023-02-22T06:27:47.437Z,12.95
2023-02-22T06:29:50.199Z,11.65
2023-02-22T06:31:53.036Z,12.30
2023-02-22T06:33:55.816Z,11.65
2023-02-22T06:35:58.551Z,13.85
2023-02-22T06:38:02.662Z,12.20
2023-02-22T06:40:06.043Z,12.23
2023-02-22T06:42:09.041Z,13.02
2023-02-22T06:44:12.851Z,12.80
2023-02-22T06:46:15.854Z,12.43
2023-02-22T06:48:19.254Z,12.32
2023-02-22T06:50:25.081Z,13.32
2023-02-22T06:52:27.950Z,12.93
2023-02-22T06:54:32.085Z,11.07
2023-02-22T06:56:34.863Z,11.43
2023-02-22T06:58:37.616Z,12.35
2023-02-22T07:00:40.440Z,13.02
2023-02-22T07:02:43.956Z,13.02
2023-02-22T07:04:46.764Z,13.07
2023-02-22T07:06:50.785Z,13.52
2023-02-22T07:08:53.584Z,14.23
2023-02-22T07:10:57.912Z,13.98
2023-02-22T07:13:01.062Z,15.32
2023-02-22T07:15:03.904Z,15.27
2023-02-22T07:17:07.534Z,16.52
2023-02-22T07:19:10.314Z,17.02
2023-02-22T07:21:13.064Z,15.27
2023-02-22T07:23:16.222Z,15.70
2023-02-22T07:25:19.859Z,14.35
2023-02-22T07:27:24.037Z,15.52
2023-02-22T07:29:26.797Z,16.40
2023-02-22T07:31:29.787Z,14.55
2023-02-22T07:33:32.607Z,14.85
2023-02-22T07:35:37.628Z,13.50
2023-02-22T07:37:40.415Z,15.43
2023-02-22T07:39:43.798Z,17.10
2023-02-22T07:41:46.614Z,16.58
2023-02-22T07:44:00.176Z,15.57
2023-02-22T07:46:03.230Z,14.90
2023-02-22T07:48:07.627Z,14.93
2023-02-22T07:50:10.461Z,14.77
2023-02-22T07:52:13.403Z,14.10
2023-02-22T07:54:16.120Z,14.98
2023-02-22T07:56:18.954Z,14.40
2023-02-22T07:58:23.826Z,12.70
2023-02-22T08:02:32.006Z,12.13
2023-02-22T08:04:34.829Z,12.60
2023-02-22T08:06:38.068Z,10.93
2023-02-22T08:08:41.078Z,10.52
2023-02-22T08:10:44.768Z,11.75
2023-02-22T08:12:49.074Z,12.13
2023-02-22T08:14:51.887Z,10.75
2023-02-22T08:16:56.062Z,11.30
2023-02-22T08:18:58.794Z,11.20
2023-02-22T08:21:01.622Z,11.63
2023-02-22T08:23:04.835Z,9.65
2023-02-22T08:25:08.314Z,10.63
2023-02-22T08:27:12.015Z,12.15
2023-02-22T08:29:15.142Z,12.13
2023-02-22T08:31:18.351Z,9.50
2023-02-22T08:33:23.188Z,11.43
2023-02-22T08:35:27.433Z,11.18
2023-02-22T08:37:30.194Z,10.27
2023-02-22T08:39:33.025Z,11.35
2023-02-22T08:41:35.840Z,10.25
2023-02-22T08:43:38.641Z,9.50
2023-02-22T08:45:42.066Z,10.65
2023-02-22T08:47:44.962Z,11.10
2023-02-22T08:49:49.098Z,11.80
2023-02-22T08:51:51.854Z,12.27
2023-02-22T08:53:54.756Z,11.88
2023-02-22T08:55:57.964Z,10.93
2023-02-22T08:58:12.191Z,11.23
2023-02-22T09:00:16.714Z,10.48
2023-02-22T09:02:21.845Z,12.05
2023-02-22T09:04:24.790Z,12.00
2023-02-22T09:06:29.559Z,11.35
2023-02-22T09:10:36.284Z,11.65
2023-02-22T09:12:39.077Z,11.90
2023-02-22T09:14:42.975Z,10.55
2023-02-22T09:16:46.268Z,11.30
2023-02-22T09:18:49.097Z,10.77
2023-02-22T09:20:53.013Z,12.25
2023-02-22T09:22:57.868Z,10.13
2023-02-22T09:27:20.075Z,11.00
2023-02-22T09:31:26.563Z,11.27
2023-02-22T09:33:29.412Z,11.82
2023-02-22T09:35:36.059Z,10.60
2023-02-22T09:37:39.012Z,10.77
2023-02-22T09:39:44.727Z,10.82
2023-02-22T09:41:56.567Z,12.25
2023-02-22T09:44:16.436Z,12.65
2023-02-22T09:46:29.479Z,12.07
2023-02-22T09:48:37.284Z,11.43
2023-02-22T09:50:43.156Z,12.15
2023-02-22T09:52:55.063Z,10.63
2023-02-22T09:55:08.324Z,11.25
2023-02-22T09:57:17.136Z,11.15
2023-02-22T09:59:26.866Z,10.88
2023-02-22T10:01:35.747Z,9.95
2023-02-22T10:03:48.618Z,9.85
2023-02-22T10:05:56.911Z,10.32
2023-02-22T10:08:05.811Z,9.07
2023-02-22T10:10:18.008Z,9.85
2023-02-22T10:12:30.557Z,9.98
2023-02-22T10:14:48.788Z,10.82
2023-02-22T10:17:01.521Z,10.02
2023-02-22T10:19:26.002Z,9.45
2023-02-22T10:21:47.568Z,9.45
2023-02-22T10:24:04.394Z,9.57
2023-02-22T10:26:17.330Z,9.52
2023-02-22T10:28:24.671Z,8.75
2023-02-22T10:30:33.857Z,10.43
2023-02-22T10:32:45.346Z,8.73
2023-02-22T10:34:51.456Z,9.82
2023-02-22T10:37:00.201Z,9.32
2023-02-22T10:39:16.564Z,10.32
2023-02-22T10:41:27.522Z,10.15
2023-02-22T10:43:31.274Z,10.27
2023-02-22T10:45:36.968Z,9.93
2023-02-22T10:47:42.648Z,10.35
2023-02-22T10:49:51.929Z,9.00
2023-02-22T10:52:01.672Z,8.98
2023-02-22T10:54:26.666Z,9.75
2023-02-22T10:56:30.897Z,10.30
2023-02-22T10:58:42.160Z,10.32
2023-02-22T11:00:46.668Z,9.35
2023-02-22T11:02:53.424Z,9.15
2023-02-22T11:04:58.760Z,9.55
2023-02-22T11:07:20.248Z,8.80
2023-02-22T11:09:23.691Z,9.90
2023-02-22T11:11:29.132Z,9.80
2023-02-22T11:13:38.201Z,9.20
2023-02-22T11:15:41.044Z,9.93
2023-02-22T11:17:46.172Z,9.23
2023-02-22T11:19:51.170Z,10.32
2023-02-22T11:21:56.481Z,9.82
2023-02-22T11:24:04.396Z,9.23
2023-02-22T11:26:10.343Z,10.32
2023-02-22T11:28:20.239Z,9.68
2023-02-22T11:30:30.718Z,8.90
2023-02-22T11:32:33.825Z,9.90
2023-02-22T11:34:38.650Z,10.23
2023-02-22T11:36:43.384Z,10.10
2023-02-22T11:38:56.135Z,7.78
2023-02-22T11:41:15.445Z,9.75
2023-02-22T11:43:20.441Z,9.23
2023-02-22T11:47:27.891Z,10.63
2023-02-22T11:49:35.600Z,10.02
2023-02-22T11:51:53.298Z,9.55
2023-02-22T11:54:31.159Z,9.32
2023-02-22T11:56:39.854Z,10.13
2023-02-22T11:58:49.221Z,8.45
2023-02-22T12:00:59.109Z,11.23
2023-02-22T12:03:40.378Z,9.05
2023-02-22T12:06:00.416Z,9.32
2023-02-22T12:08:19.845Z,10.23
2023-02-22T12:10:32.909Z,10.43
2023-02-22T12:12:48.478Z,8.80
2023-02-22T12:15:01.375Z,9.15
2023-02-22T12:17:20.424Z,11.02
2023-02-22T12:19:32.660Z,9.98
2023-02-22T12:21:40.625Z,11.05
2023-02-22T12:23:50.580Z,9.85
2023-02-22T12:26:02.239Z,9.73
2023-02-22T12:28:24.297Z,9.40
2023-02-22T12:30:31.257Z,9.90
2023-02-22T12:32:42.610Z,9.27
2023-02-22T12:34:50.600Z,10.70
2023-02-22T12:37:01.402Z,10.27
2023-02-22T12:39:13.421Z,9.95
2023-02-22T12:41:26.932Z,11.55
2023-02-22T12:43:34.137Z,11.32
2023-02-22T12:45:41.167Z,11.40
2023-02-22T12:47:51.289Z,11.40
2023-02-22T12:50:01.345Z,10.57
2023-02-22T12:52:28.347Z,10.35
2023-02-22T12:54:42.834Z,10.90
2023-02-22T12:56:51.572Z,10.77
2023-02-22T12:59:02.739Z,10.90
2023-02-22T13:01:11.574Z,11.80
2023-02-22T13:03:30.130Z,10.57
2023-02-22T13:05:39.223Z,10.98
2023-02-22T13:07:51.271Z,9.70
2023-02-22T13:10:12.778Z,11.88
2023-02-22T13:12:20.053Z,10.63
2023-02-22T13:14:38.820Z,12.48
2023-02-22T13:16:52.458Z,10.57
2023-02-22T13:19:04.473Z,13.15
2023-02-22T13:21:18.759Z,10.93
2023-02-22T13:23:35.172Z,11.40
2023-02-22T13:25:45.299Z,12.15
2023-02-22T13:27:52.482Z,10.88
2023-02-22T13:29:58.752Z,12.20
2023-02-22T13:32:15.409Z,12.00
2023-02-22T13:34:43.479Z,11.00
2023-02-22T13:37:17.611Z,10.57
2023-02-22T13:39:47.092Z,13.13
2023-02-22T13:42:03.055Z,12.88
2023-02-22T13:44:52.289Z,10.95
2023-02-22T13:47:27.740Z,10.20
2023-02-22T13:49:53.374Z,12.98
2023-02-22T13:54:08.573Z,10.18
2023-02-22T13:56:11.907Z,11.32
2023-02-22T13:58:50.845Z,10.85
2023-02-22T14:00:56.674Z,9.90
2023-02-22T14:03:08.121Z,10.15
2023-02-22T14:05:49.654Z,10.93
2023-02-22T14:07:52.566Z,9.52
2023-02-22T14:09:59.078Z,10.05
2023-02-22T14:12:01.897Z,10.60
2023-02-22T14:14:14.602Z,9.70
2023-02-22T14:16:21.025Z,9.93
2023-02-22T14:18:24.450Z,9.25
2023-02-22T14:20:35.159Z,8.93
2023-02-22T14:22:38.232Z,8.77
2023-02-22T14:24:45.182Z,8.55
2023-02-22T14:26:59.228Z,9.70
2023-02-22T14:29:14.966Z,9.35
2023-02-22T14:31:34.868Z,11.45
2023-02-22T14:33:53.297Z,9.48
2023-02-22T14:35:56.175Z,11.27
2023-02-22T14:38:01.406Z,9.88
2023-02-22T14:40:15.488Z,13.77
2023-02-22T14:42:24.032Z,10.15
2023-02-22T14:44:31.269Z,11.07
2023-02-22T14:46:40.532Z,8.70
2023-02-22T14:48:47.606Z,10.25
2023-02-22T14:50:55.487Z,9.63
2023-02-22T14:53:04.298Z,8.48
2023-02-22T14:55:16.679Z,8.50
2023-02-22T14:57:29.461Z,9.52
2023-02-22T14:59:34.972Z,8.35
2023-02-22T15:01:50.791Z,8.45
2023-02-22T15:04:07.068Z,9.68
2023-02-22T15:06:16.850Z,8.70
2023-02-22T15:08:28.005Z,8.35
2023-02-22T15:10:32.490Z,8.35
2023-02-22T15:12:36.908Z,7.47
2023-02-22T15:14:41.073Z,10.25
2023-02-22T15:16:49.939Z,8.68
2023-02-22T15:18:55.846Z,9.65
2023-02-22T15:21:05.897Z,8.80
2023-02-22T15:23:10.161Z,7.47
2023-02-22T15:25:13.109Z,9.52
2023-02-22T15:27:19.445Z,9.32
2023-02-22T15:29:25.297Z,9.88
2023-02-22T15:31:31.938Z,8.32
2023-02-22T15:33:38.053Z,7.85
2023-02-22T15:35:41.077Z,8.55
2023-02-22T15:37:48.789Z,7.10
2023-02-22T15:39:59.124Z,8.77
2023-02-22T15:42:03.653Z,7.90
2023-02-22T15:44:22.794Z,9.00
2023-02-22T15:46:27.733Z,7.53
2023-02-22T15:48:31.636Z,8.27
2023-02-22T15:50:35.820Z,8.10
2023-02-22T15:52:38.775Z,7.30
2023-02-22T15:54:45.396Z,6.78
2023-02-22T15:56:50.623Z,7.38
2023-02-22T15:59:00.779Z,7.13
2023-02-22T16:01:06.631Z,7.53
2023-02-22T16:03:13.513Z,7.05
2023-02-22T16:05:18.337Z,7.53
2023-02-22T16:07:21.500Z,6.88
2023-02-22T16:09:26.460Z,6.63
2023-02-22T16:11:33.036Z,6.30
2023-02-22T16:13:37.066Z,7.03
2023-02-22T16:15:39.838Z,7.05
2023-02-22T16:17:52.424Z,6.35
2023-02-22T16:20:01.833Z,7.43
2023-02-22T16:22:13.367Z,7.22
2023-02-22T16:24:26.661Z,6.13
2023-02-22T16:26:32.362Z,7.15
2023-02-22T16:28:35.865Z,7.03
2023-02-22T16:30:40.526Z,6.38
2023-02-22T16:32:43.488Z,7.47
2023-02-22T16:34:48.018Z,6.45
2023-02-22T16:36:52.467Z,7.25
2023-02-22T16:38:55.343Z,7.93
2023-02-22T16:40:58.611Z,7.43
2023-02-22T16:43:03.497Z,7.53
2023-02-22T16:45:06.772Z,7.30
2023-02-22T16:47:11.811Z,7.00
2023-02-22T16:49:15.044Z,6.82
2023-02-22T16:51:21.926Z,7.05
2023-02-22T16:53:28.898Z,6.30
2023-02-22T16:55:31.879Z,6.07
2023-02-22T16:57:34.681Z,6.32
2023-02-22T16:59:40.572Z,6.55
2023-02-22T17:01:43.897Z,7.22
2023-02-22T17:03:47.777Z,7.60
2023-02-22T17:05:51.078Z,7.30
2023-02-22T17:07:53.910Z,6.88
2023-02-22T17:09:59.167Z,7.60
2023-02-22T17:12:03.279Z,6.78
2023-02-22T17:14:06.613Z,6.60
2023-02-22T17:16:15.550Z,7.22
2023-02-22T17:18:22.557Z,6.35
2023-02-22T17:20:30.829Z,7.18
2023-02-22T17:22:33.626Z,7.43
2023-02-22T17:24:36.607Z,6.35
2023-02-22T17:26:40.735Z,6.35
2023-02-22T17:28:44.115Z,7.25
2023-02-22T17:31:06.173Z,6.60
2023-02-22T17:33:10.028Z,7.15
2023-02-22T17:35:12.989Z,7.03
2023-02-22T17:37:15.768Z,7.03
2023-02-22T17:39:18.589Z,7.88
2023-02-22T17:41:21.412Z,7.00
2023-02-22T17:43:27.798Z,7.72
2023-02-22T17:45:31.103Z,6.90
2023-02-22T17:47:33.959Z,7.13
2023-02-22T17:49:36.761Z,7.90
2023-02-22T17:51:40.775Z,10.30
2023-02-22T17:53:43.571Z,7.15
2023-02-22T17:55:46.348Z,9.63
2023-02-22T17:57:58.248Z,10.73
2023-02-22T18:00:12.269Z,8.10
2023-02-22T18:02:15.516Z,8.60
2023-02-22T18:04:18.348Z,8.05
2023-02-22T18:06:25.208Z,7.75
2023-02-22T18:08:29.870Z,7.50
2023-02-22T18:10:33.038Z,8.40
2023-02-22T18:12:35.800Z,7.53
2023-02-22T18:14:38.634Z,7.65
2023-02-22T18:16:42.964Z,8.02
2023-02-22T18:18:45.735Z,7.10
2023-02-22T18:20:51.390Z,7.63
2023-02-22T18:22:54.276Z,10.32
2023-02-22T18:25:00.879Z,9.52
2023-02-22T18:27:06.511Z,13.18
2023-02-22T18:29:12.220Z,12.63
2023-02-22T18:31:17.166Z,10.50
2023-02-22T18:33:21.404Z,11.18
2023-02-22T18:35:24.255Z,10.80
2023-02-22T18:37:28.347Z,11.60
2023-02-22T18:39:33.778Z,10.45
2023-02-22T18:41:36.556Z,10.60
2023-02-22T18:43:39.546Z,9.23
2023-02-22T18:45:42.397Z,8.93
2023-02-22T18:47:45.775Z,12.80
2023-02-22T18:49:49.879Z,11.27
2023-02-22T18:51:52.783Z,11.43
2023-02-22T18:54:00.128Z,12.88
2023-02-22T18:56:07.311Z,12.70
2023-02-22T18:58:11.042Z,12.05
2023-02-22T19:00:15.888Z,10.67
2023-02-22T19:02:20.413Z,9.43
2023-02-22T19:04:24.987Z,10.40
2023-02-22T19:06:29.149Z,8.40
2023-02-22T19:08:33.109Z,8.27
2023-02-22T19:10:35.938Z,10.98
2023-02-22T19:12:39.042Z,11.50
2023-02-22T19:14:43.136Z,14.95
2023-02-22T19:16:46.379Z,11.88
2023-02-22T19:18:52.192Z,11.00
2023-02-22T19:20:58.297Z,12.13
2023-02-22T19:23:03.362Z,15.20
2023-02-22T19:25:06.873Z,14.07
2023-02-22T19:27:10.300Z,16.13
2023-02-22T19:29:13.054Z,15.75
2023-02-22T19:31:18.479Z,17.75
2023-02-22T19:33:25.635Z,21.08
2023-02-22T19:35:28.487Z,18.85
2023-02-22T19:37:34.011Z,17.40
2023-02-22T19:39:38.554Z,17.73
2023-02-22T19:41:41.841Z,20.65
2023-02-22T19:43:45.188Z,16.45
2023-02-22T19:45:48.013Z,18.67
2023-02-22T19:47:55.499Z,16.83
2023-02-22T19:50:01.657Z,17.92
2023-02-22T19:52:06.413Z,16.60
2023-02-22T19:56:17.649Z,16.17
2023-02-22T19:58:20.470Z,16.08
2023-02-22T20:00:25.047Z,16.30
2023-02-22T20:02:27.860Z,15.57
2023-02-22T20:04:31.265Z,15.52
2023-02-22T20:06:40.098Z,16.70
2023-02-22T20:08:42.951Z,16.90
2023-02-22T20:10:46.486Z,17.52
2023-02-22T20:12:50.588Z,16.65
2023-02-22T20:14:53.532Z,18.92
2023-02-22T20:16:57.358Z,18.67
2023-02-22T20:19:00.750Z,17.17
2023-02-22T20:21:08.081Z,18.35
2023-02-22T20:23:11.097Z,15.27
2023-02-22T20:25:14.007Z,15.10
2023-02-22T20:27:17.290Z,17.10
2023-02-22T20:29:26.328Z,16.42
2023-02-22T20:31:29.550Z,16.77
2023-02-22T20:33:32.529Z,18.73
2023-02-22T20:35:35.505Z,19.95
2023-02-22T20:37:40.284Z,18.90
2023-02-22T20:41:47.427Z,17.92
2023-02-22T20:43:51.096Z,18.63
2023-02-22T20:45:55.494Z,18.45
2023-02-22T20:47:58.605Z,19.95
2023-02-22T20:50:01.612Z,20.23
2023-02-22T20:52:04.640Z,18.27
2023-02-22T20:54:08.467Z,18.60
2023-02-22T20:56:13.831Z,15.88
2023-02-22T20:58:16.670Z,14.57
2023-02-22T21:00:19.531Z,14.88
2023-02-22T21:02:23.858Z,11.88
2023-02-22T21:04:29.150Z,11.68
2023-02-22T21:06:32.165Z,13.65
2023-02-22T21:08:36.084Z,12.48
2023-02-22T21:10:42.220Z,14.83
2023-02-22T21:12:47.689Z,15.00
2023-02-22T21:14:50.533Z,14.95
2023-02-22T21:16:53.909Z,16.27
2023-02-22T21:18:59.758Z,13.23
2023-02-22T21:21:09.976Z,11.38
2023-02-22T21:23:12.756Z,14.93
2023-02-22T21:25:16.522Z,17.70
2023-02-22T21:27:19.312Z,16.73
2023-02-22T21:29:22.474Z,20.20
2023-02-22T21:31:26.543Z,17.33
2023-02-22T21:33:31.533Z,17.48
2023-02-22T21:35:36.875Z,17.30
2023-02-22T21:37:39.717Z,19.25
2023-02-22T21:39:47.413Z,18.55
2023-02-22T21:41:52.175Z,19.50
2023-02-22T21:46:02.274Z,19.77
2023-02-22T21:48:06.262Z,20.35
2023-02-22T21:50:10.353Z,20.45
2023-02-22T21:52:14.489Z,18.95
2023-02-22T21:54:17.295Z,19.88
2023-02-22T21:56:24.214Z,19.95
2023-02-22T21:58:28.008Z,20.45
2023-02-22T22:00:34.785Z,22.25
2023-02-22T22:02:38.216Z,18.38
2023-02-22T22:04:41.012Z,16.77
2023-02-22T22:06:43.844Z,17.40
2023-02-22T22:08:48.452Z,15.23
2023-02-22T22:10:55.473Z,17.70
2023-02-22T22:13:01.670Z,16.63
2023-02-22T22:15:04.760Z,16.77
2023-02-22T22:17:09.324Z,16.10
2023-02-22T22:19:13.058Z,16.33
2023-02-22T22:21:18.007Z,20.08
2023-02-22T22:23:21.081Z,20.38
2023-02-22T22:25:28.146Z,18.15
2023-02-22T22:27:32.430Z,19.00
2023-02-22T22:29:35.287Z,19.20
2023-02-22T22:31:38.539Z,15.48
2023-02-22T22:33:43.093Z,23.17
2023-02-22T22:35:45.912Z,25.65
2023-02-22T22:37:51.130Z,24.35
2023-02-22T22:39:53.946Z,23.85
2023-02-22T22:41:58.292Z,24.10
2023-02-22T22:44:01.099Z,21.70
2023-02-22T22:46:05.693Z,22.27
2023-02-22T22:48:09.356Z,21.13
2023-02-22T22:50:13.418Z,23.35
2023-02-22T22:52:18.948Z,22.65
2023-02-22T22:54:21.718Z,23.55
2023-02-22T22:56:26.450Z,25.08
2023-02-22T23:00:37.399Z,24.40
2023-02-22T23:02:40.558Z,22.65
2023-02-22T23:04:43.349Z,22.33
2023-02-22T23:06:49.796Z,21.33
2023-02-22T23:09:00.845Z,19.98
2023-02-22T23:11:09.064Z,21.65
2023-02-22T23:13:15.464Z,22.45
2023-02-22T23:15:19.624Z,25.50
2023-02-22T23:17:31.036Z,24.42
2023-02-22T23:19:35.375Z,23.27
2023-02-22T23:21:39.264Z,23.35
2023-02-22T23:23:41.997Z,21.75
2023-02-22T23:25:50.347Z,25.27
2023-02-22T23:27:54.839Z,24.45
2023-02-22T23:29:59.283Z,24.77
2023-02-22T23:32:05.599Z,25.00
2023-02-22T23:34:10.999Z,26.88
2023-02-22T23:36:13.886Z,27.75
2023-02-22T23:38:19.804Z,26.42
2023-02-22T23:40:25.837Z,26.88
2023-02-22T23:42:28.683Z,28.67
2023-02-22T23:44:31.770Z,29.52
2023-02-22T23:46:34.906Z,27.98
2023-02-22T23:48:42.994Z,28.13
2023-02-22T23:50:46.530Z,28.95
2023-02-22T23:52:49.877Z,26.35
2023-02-22T23:54:53.951Z,26.02
2023-02-22T23:56:57.162Z,29.45
2023-02-22T23:58:59.933Z,28.67
